Time;durP1;ratioP1;P1;durP2;ratioP2;P2;SDS_P1;SDS_P2;PMS_P1;PMS_P2;Temp;Humidity;BMP_temperature;BMP_pressure;BME280_temperature;BME280_humidity;BME280_pressure;Samples;Min_cycle;Max_cycle;Signal;HPM_P1;HPM_P2
2023/04/21 00:00:14;;;;;;;0.60;0.60;;;;;;;12.85;100.00;99630.56;5013330;28;20201;-76
2023/04/21 00:02:41;;;;;;;0.50;0.50;;;;;;;12.83;100.00;99629.72;5003557;28;20206;-75
2023/04/21 00:05:09;;;;;;;0.60;0.60;;;;;;;12.84;100.00;99621.91;4995012;28;20197;-75
2023/04/21 00:07:37;;;;;;;0.80;0.80;;;;;;;12.76;100.00;99622.78;5007786;28;20231;-75
2023/04/21 00:10:06;;;;;;;0.70;0.70;;;;;;;12.64;100.00;99618.47;5011633;28;20195;-76
2023/04/21 00:12:34;;;;;;;0.60;0.60;;;;;;;12.53;100.00;99602.00;5007600;28;20236;-76
2023/04/21 00:15:01;;;;;;;0.60;0.60;;;;;;;12.63;100.00;99602.84;4993896;28;20310;-75
2023/04/21 00:17:28;;;;;;;0.60;0.60;;;;;;;12.78;100.00;99623.66;5006434;28;20212;-75
2023/04/21 00:19:55;;;;;;;1.02;1.02;;;;;;;12.70;100.00;99620.22;4974435;28;20198;-75
2023/04/21 00:22:21;;;;;;;0.60;0.60;;;;;;;12.69;100.00;99623.69;4998521;28;20200;-75
2023/04/21 00:24:48;;;;;;;0.60;0.60;;;;;;;12.69;100.00;99624.53;5012513;28;20208;-80
2023/04/21 00:27:15;;;;;;;0.70;0.70;;;;;;;12.73;100.00;99620.22;5012933;28;20304;-84
2023/04/21 00:29:43;;;;;;;0.50;0.50;;;;;;;12.78;100.00;99613.25;5012752;28;20240;-75
2023/04/21 00:32:10;;;;;;;0.60;0.60;;;;;;;12.74;100.00;99616.72;5004880;28;20197;-76
2023/04/21 00:34:37;;;;;;;0.50;0.50;;;;;;;12.77;100.00;99611.53;4993651;28;20335;-76
2023/04/21 00:37:04;;;;;;;0.60;0.60;;;;;;;12.67;100.00;99607.19;4993149;28;20788;-76
2023/04/21 00:39:30;;;;;;;0.55;0.55;;;;;;;12.69;100.00;99585.53;4994189;28;20661;-76
2023/04/21 00:41:57;;;;;;;0.60;0.60;;;;;;;12.91;100.00;99599.38;4999737;28;20602;-76
2023/04/21 00:44:24;;;;;;;0.60;0.60;;;;;;;12.96;100.00;99595.00;5000036;28;20742;-75
2023/04/21 00:46:52;;;;;;;0.60;0.60;;;;;;;12.97;100.00;99586.34;5012691;28;20228;-75
2023/04/21 00:49:19;;;;;;;0.60;0.60;;;;;;;12.84;100.00;99585.47;5012825;28;20287;-75
2023/04/21 00:51:46;;;;;;;1.05;1.05;;;;;;;12.84;100.00;99569.88;5006853;28;20197;-73
2023/04/21 00:54:14;;;;;;;0.60;0.60;;;;;;;12.86;100.00;99565.53;4970613;28;20635;-73
2023/04/21 00:56:40;;;;;;;0.60;0.60;;;;;;;12.73;100.00;99549.97;5012366;28;20595;-74
2023/04/21 00:59:07;;;;;;;0.60;0.60;;;;;;;12.80;100.00;99564.69;5003669;28;20194;-74
2023/04/21 01:01:35;;;;;;;0.60;0.60;;;;;;;12.86;100.00;99562.06;4994846;28;20232;-74
2023/04/21 01:04:04;;;;;;;0.55;0.55;;;;;;;12.89;100.00;99546.44;5003809;28;20205;-73
2023/04/21 01:06:33;;;;;;;0.60;0.60;;;;;;;12.97;100.00;99557.72;4992780;28;20217;-74
2023/04/21 01:09:00;;;;;;;0.60;0.60;;;;;;;12.87;100.00;99548.19;5003567;28;20204;-74
2023/04/21 01:11:27;;;;;;;0.60;0.60;;;;;;;12.79;100.00;99550.81;4995369;28;20260;-73
2023/04/21 01:13:54;;;;;;;0.50;0.50;;;;;;;12.97;100.00;99562.03;5009892;28;20216;-73
2023/04/21 01:16:22;;;;;;;0.60;0.60;;;;;;;12.98;100.00;99558.56;5011994;28;20344;-74
2023/04/21 01:18:50;;;;;;;0.70;0.70;;;;;;;13.12;100.00;99560.28;5003989;28;20280;-74
2023/04/21 01:21:20;;;;;;;1.00;1.00;;;;;;;13.00;100.00;99562.91;4993518;28;20209;-73
2023/04/21 01:23:48;;;;;;;0.55;0.55;;;;;;;13.10;100.00;99559.41;5003822;28;20251;-74
2023/04/21 01:26:17;;;;;;;0.70;0.70;;;;;;;12.88;100.00;99542.97;4976527;28;20953;-74
2023/04/21 01:28:46;;;;;;;0.60;0.60;;;;;;;12.74;100.00;99551.69;5003830;28;20255;-73
2023/04/21 01:31:13;;;;;;;0.60;0.60;;;;;;;12.87;100.00;99571.63;4981271;28;20558;-73
2023/04/21 01:33:40;;;;;;;0.50;0.50;;;;;;;12.90;100.00;99559.47;5003763;28;20196;-73
2023/04/21 01:36:07;;;;;;;0.60;0.60;;;;;;;12.46;100.00;99485.88;5011553;28;20201;-74
2023/04/21 01:38:37;;;;;;;0.70;0.70;;;;;;;12.86;100.00;99565.53;5011779;28;20204;-74
2023/04/21 01:41:05;;;;;;;0.60;0.60;;;;;;;12.91;100.00;99565.53;5008345;28;20208;-74
2023/04/21 01:43:32;;;;;;;0.85;0.85;;;;;;;12.88;100.00;99568.13;4996184;28;20248;-74
2023/04/21 01:45:59;;;;;;;0.60;0.60;;;;;;;12.88;100.00;99573.31;4992124;28;20201;-75
2023/04/21 01:48:25;;;;;;;0.60;0.60;;;;;;;12.72;100.00;99554.31;4997713;28;20200;-74
2023/04/21 01:50:52;;;;;;;0.55;0.55;;;;;;;12.69;100.00;99551.72;5011168;28;20516;-74
2023/04/21 01:53:19;;;;;;;0.70;0.70;;;;;;;12.67;100.00;99556.03;5008463;28;20259;-74
2023/04/21 01:55:46;;;;;;;1.00;1.00;;;;;;;12.52;100.00;99531.81;5011395;28;20253;-74
2023/04/21 01:58:14;;;;;;;0.52;0.52;;;;;;;12.62;100.00;99564.72;5004998;28;20248;-74
2023/04/21 02:00:41;;;;;;;0.90;0.90;;;;;;;12.64;100.00;99562.97;5006916;28;20223;-73
2023/04/21 02:03:07;;;;;;;0.60;0.60;;;;;;;12.60;100.00;99549.13;5001882;28;20201;-73
2023/04/21 02:05:34;;;;;;;0.60;0.60;;;;;;;12.53;100.00;99543.91;4991689;28;20626;-74
2023/04/21 02:08:01;;;;;;;1.00;1.00;;;;;;;12.60;100.00;99543.91;4941125;28;20854;-74
2023/04/21 02:10:28;;;;;;;0.70;0.70;;;;;;;12.41;100.00;99518.84;5003612;28;20201;-73
2023/04/21 02:12:54;;;;;;;0.52;0.52;;;;;;;12.53;100.00;99525.72;4994962;28;20621;-74
2023/04/21 02:15:23;;;;;;;0.80;0.80;;;;;;;12.76;100.00;99534.34;4998147;28;20260;-75
2023/04/21 02:17:49;;;;;;;0.60;0.60;;;;;;;12.74;100.00;99530.88;4995173;28;20296;-74
2023/04/21 02:20:16;;;;;;;0.60;0.60;;;;;;;12.73;100.00;99526.56;4991615;28;20201;-74
2023/04/21 02:22:43;;;;;;;0.52;0.52;;;;;;;12.75;100.00;99532.63;5007305;28;20253;-74
2023/04/21 02:25:10;;;;;;;0.40;0.40;;;;;;;12.77;100.00;99543.91;4991633;28;20213;-74
2023/04/21 02:27:36;;;;;;;0.70;0.70;;;;;;;12.84;100.00;99548.22;4992634;28;20229;-74
2023/04/21 02:30:04;;;;;;;0.70;0.70;;;;;;;12.82;100.00;99552.53;4991663;28;20205;-74
2023/04/21 02:32:32;;;;;;;0.63;0.63;;;;;;;12.83;100.00;99534.34;4942449;28;20731;-74
2023/04/21 02:34:59;;;;;;;0.50;0.50;;;;;;;12.91;100.00;99557.72;4976564;28;20202;-74
2023/04/21 02:37:26;;;;;;;0.50;0.50;;;;;;;12.96;100.00;99561.16;4991516;28;20200;-74
2023/04/21 02:39:52;;;;;;;0.50;0.50;;;;;;;12.90;100.00;99549.06;4992544;28;20205;-74
2023/04/21 02:42:19;;;;;;;0.45;0.45;;;;;;;12.88;100.00;99544.72;5006585;28;20224;-74
2023/04/21 02:44:46;;;;;;;0.60;0.60;;;;;;;12.74;100.00;99549.94;4994444;28;20230;-74
2023/04/21 02:47:15;;;;;;;0.57;0.57;;;;;;;12.81;100.00;99545.59;4996974;28;20278;-74
2023/04/21 02:49:43;;;;;;;0.60;0.60;;;;;;;12.78;100.00;99543.00;4999656;28;20216;-74
2023/04/21 02:52:10;;;;;;;0.60;0.60;;;;;;;12.74;100.00;99556.88;4959635;28;20208;-74
2023/04/21 02:54:37;;;;;;;0.60;0.60;;;;;;;12.75;100.00;99561.22;5010628;28;20629;-74
2023/04/21 02:57:03;;;;;;;0.60;0.60;;;;;;;12.70;100.00;99556.03;5008044;28;20196;-74
2023/04/21 02:59:30;;;;;;;0.70;0.70;;;;;;;12.69;100.00;99567.31;5010093;28;20247;-74
2023/04/21 03:01:57;;;;;;;0.50;0.50;;;;;;;12.68;100.00;99560.38;5013361;28;20209;-75
2023/04/21 03:04:24;;;;;;;0.70;0.70;;;;;;;12.56;100.00;99542.19;5014591;28;20268;-74
2023/04/21 03:06:53;;;;;;;0.70;0.70;;;;;;;12.69;100.00;99558.66;4997017;28;20228;-74
2023/04/21 03:09:20;;;;;;;0.60;0.60;;;;;;;12.59;100.00;99559.53;5013169;28;20962;-74
2023/04/21 03:11:47;;;;;;;0.60;0.60;;;;;;;12.54;100.00;99553.47;5000545;28;20369;-74
2023/04/21 03:14:14;;;;;;;0.70;0.70;;;;;;;12.55;100.00;99550.00;4994707;28;20280;-74
2023/04/21 03:16:40;;;;;;;0.70;0.70;;;;;;;12.51;100.00;99556.94;5002836;28;20664;-75
2023/04/21 03:19:07;;;;;;;0.70;0.70;;;;;;;12.45;100.00;99556.94;5013277;28;20651;-74
2023/04/21 03:21:37;;;;;;;0.68;0.68;;;;;;;12.32;100.00;99540.50;5014143;28;20209;-74
2023/04/21 03:24:07;;;;;;;0.60;0.60;;;;;;;12.34;100.00;99554.34;5014297;28;20291;-74
2023/04/21 03:26:34;;;;;;;0.70;0.70;;;;;;;12.29;100.00;99556.09;5013703;28;20208;-74
2023/04/21 03:29:01;;;;;;;0.60;0.60;;;;;;;12.16;100.00;99536.19;5022990;28;20682;-75
2023/04/21 03:31:27;;;;;;;0.88;0.88;;;;;;;12.14;100.00;99550.03;4995072;28;20203;-74
2023/04/21 03:33:54;;;;;;;0.60;0.60;;;;;;;11.95;100.00;99558.69;4975596;28;20570;-74
2023/04/21 03:36:21;;;;;;;0.60;0.60;;;;;;;11.99;100.00;99555.19;5012453;28;20550;-76
2023/04/21 03:38:48;;;;;;;0.60;0.60;;;;;;;11.85;100.00;99550.88;5006333;28;20204;-76
2023/04/21 03:41:16;;;;;;;0.60;0.60;;;;;;;12.13;100.00;99571.69;5014453;28;20193;-73
2023/04/21 03:43:43;;;;;;;0.57;0.57;;;;;;;12.07;100.00;99569.94;5018635;28;20200;-74
2023/04/21 03:46:18;;;;;;;0.60;0.60;;;;;;;12.14;100.00;99570.81;4973322;28;20212;-75
2023/04/21 03:48:45;;;;;;;0.60;0.60;;;;;;;12.25;100.00;99585.56;5027558;28;20310;-73
2023/04/21 03:51:11;;;;;;;0.60;0.60;;;;;;;12.38;100.00;99589.88;5019597;28;20205;-73
2023/04/21 03:53:38;;;;;;;0.50;0.50;;;;;;;12.42;100.00;99593.34;5018168;28;20730;-74
2023/04/21 03:56:05;;;;;;;0.60;0.60;;;;;;;12.58;100.00;99594.22;5022967;28;20632;-74
2023/04/21 03:58:34;;;;;;;0.80;0.80;;;;;;;12.41;100.00;99566.47;5017421;28;20205;-74
2023/04/21 04:01:01;;;;;;;0.70;0.70;;;;;;;12.65;100.00;99606.34;4966634;28;20197;-74
2023/04/21 04:03:27;;;;;;;0.60;0.60;;;;;;;12.77;100.00;99596.75;5021797;28;20196;-75
2023/04/21 04:05:54;;;;;;;0.60;0.60;;;;;;;12.84;100.00;99621.06;5026157;28;20213;-74
2023/04/21 04:08:21;;;;;;;0.70;0.70;;;;;;;12.90;100.00;99613.22;5015337;28;20260;-74
2023/04/21 04:10:48;;;;;;;0.73;0.73;;;;;;;12.99;100.00;99636.63;5027908;28;20668;-73
2023/04/21 04:13:15;;;;;;;0.60;0.60;;;;;;;13.06;100.00;99632.28;5012517;28;20197;-75
2023/04/21 04:15:43;;;;;;;0.55;0.55;;;;;;;13.18;100.00;99640.09;5015973;28;20205;-75
2023/04/21 04:18:10;;;;;;;0.50;0.50;;;;;;;13.02;100.00;99615.78;5012549;28;20204;-75
2023/04/21 04:20:37;;;;;;;0.50;0.50;;;;;;;13.16;100.00;99644.44;5012821;28;20200;-75
2023/04/21 04:23:03;;;;;;;0.57;0.57;;;;;;;13.20;100.00;99649.63;4977949;28;20193;-75
2023/04/21 04:25:30;;;;;;;0.60;0.60;;;;;;;13.15;100.00;99656.59;4977452;28;20212;-75
2023/04/21 04:27:57;;;;;;;0.60;0.60;;;;;;;13.10;100.00;99654.84;5014536;28;20259;-75
2023/04/21 04:30:26;;;;;;;0.60;0.60;;;;;;;13.20;100.00;99660.03;5017603;28;20204;-76
2023/04/21 04:32:56;;;;;;;0.60;0.60;;;;;;;13.24;100.00;99660.88;5018119;28;20193;-74
2023/04/21 04:35:23;;;;;;;0.75;0.75;;;;;;;13.24;100.00;99664.38;4985723;28;20263;-73
2023/04/21 04:37:51;;;;;;;0.52;0.52;;;;;;;13.26;100.00;99667.84;5016867;28;20212;-74
2023/04/21 04:40:18;;;;;;;0.60;0.60;;;;;;;13.18;100.00;99671.31;5013766;28;20211;-74
2023/04/21 04:42:45;;;;;;;0.50;0.50;;;;;;;13.24;100.00;99669.56;5012386;28;20641;-74
2023/04/21 04:45:12;;;;;;;0.60;0.60;;;;;;;13.45;100.00;99665.19;5012434;28;20617;-74
2023/04/21 04:47:39;;;;;;;0.57;0.57;;;;;;;13.46;100.00;99674.72;5011101;28;20287;-73
2023/04/21 04:50:08;;;;;;;0.70;0.70;;;;;;;13.51;100.00;99680.78;5032398;28;20241;-73
2023/04/21 04:52:35;;;;;;;0.60;0.60;;;;;;;13.49;100.00;99672.97;5029742;28;20192;-75
2023/04/21 04:55:02;;;;;;;0.60;0.60;;;;;;;13.34;100.00;99652.22;5018206;28;20225;-75
2023/04/21 04:57:30;;;;;;;0.80;0.80;;;;;;;13.63;100.00;99685.94;5018303;28;20332;-75
2023/04/21 04:59:57;;;;;;;0.60;0.60;;;;;;;13.56;100.00;99689.44;5021984;28;20204;-74
2023/04/21 05:02:24;;;;;;;0.75;0.75;;;;;;;13.50;100.00;99699.88;5019908;28;20204;-75
2023/04/21 05:04:50;;;;;;;0.52;0.52;;;;;;;13.53;100.00;99681.63;5018068;28;20197;-77
2023/04/21 05:07:18;;;;;;;0.60;0.60;;;;;;;13.75;100.00;99696.31;4973192;28;20208;-77
2023/04/21 05:09:45;;;;;;;0.60;0.60;;;;;;;13.63;100.00;99704.19;5018017;28;20197;-77
2023/04/21 05:12:12;;;;;;;0.60;0.60;;;;;;;13.70;100.00;99701.53;5011966;28;20689;-75
2023/04/21 05:14:39;;;;;;;0.60;0.60;;;;;;;13.93;100.00;99695.38;5012001;28;20680;-76
2023/04/21 05:17:05;;;;;;;0.70;0.70;;;;;;;13.85;100.00;99704.09;5011658;28;20204;-78
2023/04/21 05:19:35;;;;;;;2.65;2.05;;;;;;;13.66;100.00;99662.50;5011106;28;20208;-76
2023/04/21 05:22:05;;;;;;;0.82;0.82;;;;;;;13.79;100.00;99708.47;5010699;28;20243;-78
2023/04/21 05:24:33;;;;;;;0.70;0.70;;;;;;;13.78;100.00;99709.34;5010260;28;20204;-75
2023/04/21 05:27:01;;;;;;;0.60;0.60;;;;;;;13.81;100.00;99712.78;5010691;28;20205;-76
2023/04/21 05:29:28;;;;;;;0.60;0.60;;;;;;;13.89;100.00;99715.38;5010208;28;20306;-77
2023/04/21 05:31:55;;;;;;;0.57;0.57;;;;;;;13.73;100.00;99682.47;5008406;28;20224;-80
2023/04/21 05:34:22;;;;;;;0.60;0.60;;;;;;;14.00;100.00;99713.59;5002655;28;20202;-77
2023/04/21 05:36:49;;;;;;;0.70;0.70;;;;;;;14.08;100.00;99714.44;5013528;28;20208;-78
2023/04/21 05:39:16;;;;;;;0.47;0.47;;;;;;;14.04;100.00;99710.09;5030261;28;20212;-76
2023/04/21 05:41:44;;;;;;;0.50;0.50;;;;;;;14.30;100.00;99718.63;4988120;28;20251;-80
2023/04/21 05:44:11;;;;;;;0.73;0.73;;;;;;;14.25;100.00;99723.03;5013608;28;20201;-73
2023/04/21 05:46:38;;;;;;;0.60;0.60;;;;;;;14.39;100.00;99713.41;5011079;28;20205;-80
2023/04/21 05:49:05;;;;;;;0.50;0.50;;;;;;;14.60;100.00;99703.69;5026826;28;20231;-73
2023/04/21 05:51:32;;;;;;;1.30;1.30;;;;;;;14.89;100.00;99731.31;5014788;28;20212;-78
2023/04/21 05:53:58;;;;;;;0.60;0.60;;;;;;;15.05;100.00;99734.66;5017661;28;20314;-77
2023/04/21 05:56:25;;;;;;;0.50;0.50;;;;;;;15.25;100.00;99740.56;5011085;28;20192;-78
2023/04/21 05:58:53;;;;;;;0.60;0.60;;;;;;;15.28;100.00;99735.31;4959698;28;20216;-84
2023/04/21 06:01:20;;;;;;;1.15;1.15;;;;;;;15.37;100.00;99742.19;5015122;28;20212;-80
2023/04/21 06:03:48;;;;;;;0.70;0.70;;;;;;;14.89;100.00;99715.66;5010665;28;20212;-82
2023/04/21 06:06:16;;;;;;;0.68;0.68;;;;;;;15.16;100.00;99739.78;5010484;28;20255;-79
2023/04/21 06:08:42;;;;;;;0.60;0.60;;;;;;;15.00;100.00;99744.28;5011235;28;20320;-78
2023/04/21 06:11:09;;;;;;;0.60;0.60;;;;;;;15.30;100.00;99746.59;5009292;28;20205;-76
2023/04/21 06:13:36;;;;;;;0.70;0.70;;;;;;;15.32;100.00;99749.19;5003612;28;20205;-75
2023/04/21 06:16:05;;;;;;;0.50;0.50;;;;;;;15.12;100.00;99754.63;5007834;28;20688;-76
2023/04/21 06:18:31;;;;;;;0.60;0.60;;;;;;;15.30;100.00;99757.03;5019330;28;20694;-74
2023/04/21 06:20:58;;;;;;;1.05;1.05;;;;;;;15.23;100.00;99762.38;5012576;28;20600;-74
2023/04/21 06:23:25;;;;;;;0.80;0.80;;;;;;;15.10;100.00;99758.09;4966228;28;20656;-76
2023/04/21 06:26:03;;;;;;;0.60;0.60;;;;;;;15.12;100.00;99754.63;4998774;28;20610;-74
2023/04/21 06:28:30;;;;;;;0.60;0.60;;;;;;;15.35;100.00;99759.63;5016296;28;20220;-74
2023/04/21 06:30:57;;;;;;;0.93;0.93;;;;;;;14.83;100.00;99759.22;5010014;28;20228;-76
2023/04/21 06:47:27;;;;;;;1.15;1.15;;;;;;;15.99;100.00;99757.22;5106789;27;20549;-73
2023/04/21 06:49:53;;;;;;;1.40;1.30;;;;;;;14.68;100.00;99705.38;5086668;28;20667;-77
2023/04/21 06:52:20;;;;;;;0.52;0.52;;;;;;;15.19;100.00;99785.03;5074194;28;20199;-73
2023/04/21 06:54:47;;;;;;;0.60;0.60;;;;;;;15.67;100.00;99765.41;5086203;28;20232;-74
2023/04/21 06:57:14;;;;;;;0.57;0.57;;;;;;;15.20;100.00;99758.00;5075300;28;20206;-74
2023/04/21 06:59:41;;;;;;;0.50;0.50;;;;;;;15.78;100.00;99781.84;5057961;28;20195;-73
2023/04/21 07:02:08;;;;;;;0.52;0.52;;;;;;;15.65;100.00;99792.47;5075272;28;20241;-73
2023/04/21 07:04:36;;;;;;;0.50;0.50;;;;;;;16.06;100.00;99785.03;5085687;28;20202;-74
2023/04/21 07:07:02;;;;;;;0.73;0.73;;;;;;;16.17;100.00;99798.84;5078907;28;20198;-71
2023/04/21 07:09:29;;;;;;;0.43;0.43;;;;;;;15.98;100.00;99799.09;5073455;28;20201;-71
2023/04/21 07:11:56;;;;;;;0.70;0.70;;;;;;;15.91;100.00;99805.28;5086218;28;20217;-73
2023/04/21 07:14:23;;;;;;;0.60;0.60;;;;;;;16.21;100.00;99802.28;5086418;28;20717;-73
2023/04/21 07:16:50;;;;;;;0.60;0.60;;;;;;;15.99;100.00;99806.91;5085677;28;20280;-73
2023/04/21 07:19:16;;;;;;;0.50;0.50;;;;;;;16.00;100.00;99808.63;5080699;28;20218;-73
2023/04/21 07:21:44;;;;;;;0.50;0.50;;;;;;;15.86;100.00;99813.16;5082660;28;20194;-72
2023/04/21 07:24:11;;;;;;;0.57;0.57;;;;;;;15.76;100.00;99814.13;5071056;28;20206;-72
2023/04/21 07:26:38;;;;;;;0.85;0.85;;;;;;;15.78;100.00;99808.00;5080428;28;20194;-73
2023/04/21 07:29:05;;;;;;;0.57;0.57;;;;;;;15.58;100.00;99812.56;5083302;28;20568;-73
2023/04/21 07:31:31;;;;;;;0.60;0.60;;;;;;;15.57;100.00;99807.34;5085649;28;20210;-73
2023/04/21 07:33:58;;;;;;;0.50;0.50;;;;;;;15.99;100.00;99790.34;5065998;28;20202;-73
2023/04/21 07:36:27;;;;;;;0.50;0.50;;;;;;;16.40;100.00;99811.66;5076885;28;20223;-74
2023/04/21 07:38:55;;;;;;;0.57;0.57;;;;;;;16.55;100.00;99798.31;5085566;28;20214;-73
2023/04/21 07:41:22;;;;;;;0.50;0.50;;;;;;;16.57;100.00;99825.41;5057119;28;20203;-73
2023/04/21 07:43:49;;;;;;;0.60;0.60;;;;;;;16.30;100.00;99818.72;5079909;28;20206;-75
2023/04/21 07:46:15;;;;;;;0.60;0.60;;;;;;;16.35;100.00;99840.47;5060182;28;20233;-77
2023/04/21 07:48:43;;;;;;;0.50;0.50;;;;;;;16.41;100.00;99828.22;5077628;28;20689;-77
2023/04/21 07:51:10;;;;;;;0.60;0.60;;;;;;;16.84;100.00;99830.25;5091742;28;20206;-76
2023/04/21 07:53:37;;;;;;;0.98;0.98;;;;;;;17.48;100.00;99833.63;5091856;28;20205;-76
2023/04/21 07:56:06;;;;;;;0.57;0.57;;;;;;;17.70;100.00;99835.88;5090182;28;20675;-75
2023/04/21 07:58:33;;;;;;;0.50;0.50;;;;;;;17.14;100.00;99834.16;5084397;28;20226;-75
2023/04/21 08:00:59;;;;;;;0.55;0.55;;;;;;;17.10;100.00;99834.22;5087241;28;20199;-77
2023/04/21 08:03:26;;;;;;;0.50;0.50;;;;;;;17.03;100.00;99833.47;5089894;28;20209;-75
2023/04/21 08:05:53;;;;;;;0.50;0.50;;;;;;;16.64;100.00;99810.47;5083590;28;20210;-75
2023/04/21 08:08:20;;;;;;;0.50;0.50;;;;;;;16.60;100.00;99817.50;5081765;28;20214;-75
2023/04/21 08:10:47;;;;;;;0.70;0.70;;;;;;;17.03;100.00;99824.72;5084769;28;20203;-72
2023/04/21 08:13:15;;;;;;;0.52;0.52;;;;;;;17.69;100.00;99831.50;5075771;28;20595;-77
2023/04/21 08:15:42;;;;;;;0.60;0.60;;;;;;;18.28;100.00;99850.50;5086632;28;20261;-75
2023/04/21 08:18:09;;;;;;;0.43;0.43;;;;;;;18.69;100.00;99836.56;5040851;28;20680;-77
2023/04/21 08:20:36;;;;;;;0.50;0.50;;;;;;;18.56;100.00;99835.09;5074487;28;20249;-75
2023/04/21 08:23:02;;;;;;;0.35;0.35;;;;;;;18.23;100.00;99847.09;5088576;28;20266;-75
2023/04/21 08:25:29;;;;;;;0.70;0.70;;;;;;;18.10;100.00;99846.50;5086326;28;20198;-74
2023/04/21 08:27:56;;;;;;;0.60;0.60;;;;;;;17.65;100.00;99836.84;5071985;28;20211;-74
2023/04/21 08:30:28;;;;;;;0.50;0.50;;;;;;;17.74;100.00;99845.41;5076033;28;20663;-73
2023/04/21 08:32:55;;;;;;;0.50;0.50;;;;;;;18.03;100.00;99849.25;5091323;28;20255;-75
2023/04/21 08:35:22;;;;;;;0.52;0.52;;;;;;;18.88;100.00;99851.00;5091179;28;20217;-75
2023/04/21 08:37:49;;;;;;;0.60;0.60;;;;;;;18.85;100.00;99848.47;5088787;28;20232;-74
2023/04/21 08:40:16;;;;;;;0.50;0.50;;;;;;;19.35;98.96;99855.16;5089840;28;20227;-74
2023/04/21 08:42:43;;;;;;;0.57;0.57;;;;;;;19.38;95.47;99852.44;5090894;28;20270;-74
2023/04/21 08:45:10;;;;;;;0.50;0.50;;;;;;;18.80;98.07;99855.56;5088088;28;20206;-73
2023/04/21 08:47:41;;;;;;;0.50;0.50;;;;;;;18.44;100.00;99841.44;5053061;28;20195;-78
2023/04/21 08:50:12;;;;;;;0.57;0.57;;;;;;;18.39;100.00;99845.03;5086148;28;20202;-76
2023/04/21 08:52:39;;;;;;;0.40;0.40;;;;;;;18.35;100.00;99844.25;5086266;28;20227;-78
2023/04/21 08:55:06;;;;;;;0.43;0.43;;;;;;;18.91;100.00;99856.19;5062299;28;20661;-78
2023/04/21 08:57:33;;;;;;;0.60;0.60;;;;;;;18.99;100.00;99854.25;5080586;28;20261;-76
2023/04/21 09:00:01;;;;;;;0.60;0.60;;;;;;;19.27;99.10;99859.72;5073606;28;20726;-69
2023/04/21 09:02:28;;;;;;;0.50;0.50;;;;;;;19.01;98.34;99838.47;5090593;28;20206;-72
2023/04/21 09:04:58;;;;;;;0.50;0.50;;;;;;;19.27;99.23;99850.09;5088437;28;20289;-74
2023/04/21 09:07:32;;;;;;;0.50;0.50;;;;;;;19.94;96.16;99839.66;5090476;28;20229;-74
2023/04/21 09:10:00;;;;;;;0.93;0.93;;;;;;;19.33;91.68;99808.78;5084757;28;20255;-71
2023/04/21 09:12:29;;;;;;;0.60;0.60;;;;;;;19.09;94.74;99850.50;5089560;28;20247;-72
2023/04/21 09:14:56;;;;;;;0.50;0.50;;;;;;;19.01;95.59;99848.97;5087254;28;20665;-75
2023/04/21 09:17:31;;;;;;;0.50;0.50;;;;;;;18.75;99.43;99842.56;5090238;28;20260;-75
2023/04/21 09:20:13;;;;;;;0.50;0.50;;;;;;;18.79;100.00;99764.53;5081934;28;20208;-76
2023/04/21 09:22:40;;;;;;;0.50;0.50;;;;;;;19.30;100.00;99830.72;5085446;28;20202;-77
2023/04/21 09:25:07;;;;;;;0.60;0.60;;;;;;;19.39;94.44;99851.56;5067071;28;20209;-75
2023/04/21 09:27:36;;;;;;;0.60;0.60;;;;;;;19.07;100.00;99841.81;5090491;28;20601;-77
2023/04/21 09:30:05;;;;;;;0.50;0.50;;;;;;;18.89;98.60;99792.31;5091756;28;20676;-77
2023/04/21 09:32:37;;;;;;;0.50;0.50;;;;;;;19.24;100.00;99817.75;5078809;28;20262;-76
2023/04/21 09:35:09;;;;;;;0.50;0.50;;;;;;;19.61;95.98;99844.03;5082323;28;20327;-78
2023/04/21 09:37:36;;;;;;;0.60;0.60;;;;;;;19.46;93.20;99779.53;5063969;28;20230;-75
2023/04/21 09:40:03;;;;;;;0.95;0.95;;;;;;;19.89;91.67;99838.91;5086797;28;20210;-73
2023/04/21 09:42:31;;;;;;;0.60;0.60;;;;;;;18.57;95.11;99821.94;5089364;28;20198;-73
2023/04/21 09:44:58;;;;;;;0.60;0.60;;;;;;;18.56;100.00;99821.97;5086146;28;20202;-71
2023/04/21 09:47:29;;;;;;;0.50;0.50;;;;;;;19.17;96.86;99824.91;5088752;28;20200;-75
2023/04/21 09:49:58;;;;;;;0.60;0.60;;;;;;;19.33;93.53;99830.69;5087147;28;20293;-74
2023/04/21 09:52:28;;;;;;;0.50;0.50;;;;;;;19.40;91.85;99839.28;5087461;28;20206;-74
2023/04/21 09:55:00;;;;;;;0.45;0.45;;;;;;;19.75;92.01;99837.53;5087595;28;20645;-71
2023/04/21 09:57:31;;;;;;;0.70;0.70;;;;;;;19.85;90.67;99832.88;5086891;28;20229;-75
2023/04/21 10:00:04;;;;;;;0.40;0.40;;;;;;;19.96;87.86;99840.47;5074678;28;20663;-72
2023/04/21 10:02:34;;;;;;;0.57;0.57;;;;;;;19.90;86.80;99838.88;5079576;28;20762;-75
2023/04/21 10:05:01;;;;;;;0.60;0.60;;;;;;;19.86;86.17;99826.72;5069918;28;20232;-83
2023/04/21 10:07:29;;;;;;;0.50;0.50;;;;;;;20.23;90.36;99845.84;5070422;28;20205;-77
2023/04/21 10:09:59;;;;;;;0.50;0.50;;;;;;;20.07;87.88;99844.56;5087153;28;20198;-73
2023/04/21 10:12:27;;;;;;;0.50;0.50;;;;;;;19.53;91.23;99807.41;5086046;28;20325;-72
2023/04/21 10:14:54;;;;;;;0.57;0.57;;;;;;;19.29;92.35;99829.03;5070182;28;20272;-72
2023/04/21 10:17:24;;;;;;;0.50;0.50;;;;;;;18.78;97.26;99824.09;5047027;28;20679;-73
2023/04/21 10:19:52;;;;;;;0.50;0.50;;;;;;;18.51;100.00;99818.59;5085139;28;20202;-73
2023/04/21 10:22:30;;;;;;;0.47;0.47;;;;;;;18.54;100.00;99803.63;5089513;28;20198;-72
2023/04/21 10:24:59;;;;;;;0.50;0.50;;;;;;;18.70;99.65;99822.50;5078344;28;20233;-72
2023/04/21 10:27:33;;;;;;;0.50;0.50;;;;;;;18.83;99.68;99827.47;5086067;28;20889;-72
2023/04/21 10:30:00;;;;;;;0.55;0.55;;;;;;;19.17;97.43;99809.16;5087995;28;20201;-72
2023/04/21 10:32:41;;;;;;;1.50;1.45;;;;;;;19.13;96.73;99820.63;5089267;28;20222;-72
2023/04/21 10:35:11;;;;;;;0.50;0.50;;;;;;;19.04;98.00;99786.72;5087818;28;20194;-72
2023/04/21 10:37:40;;;;;;;0.60;0.60;;;;;;;19.23;97.49;99819.50;5083132;28;20219;-72
2023/04/21 10:40:28;;;;;;;0.50;0.50;;;;;;;19.00;97.80;99815.72;5078405;28;20210;-72
2023/04/21 10:42:55;;;;;;;0.80;0.80;;;;;;;18.88;96.84;99811.59;5080056;28;20575;-71
2023/04/21 10:45:25;;;;;;;0.60;0.60;;;;;;;18.67;96.44;99825.22;5073119;28;20237;-71
2023/04/21 10:47:53;;;;;;;0.50;0.50;;;;;;;18.90;94.52;99820.31;5089490;28;20271;-72
2023/04/21 10:50:24;;;;;;;0.50;0.50;;;;;;;19.66;92.84;99819.31;5088401;28;20202;-72
2023/04/21 10:53:09;;;;;;;0.50;0.50;;;;;;;20.01;88.98;99821.00;5086242;28;20216;-72
2023/04/21 10:55:36;;;;;;;0.50;0.50;;;;;;;20.28;83.77;99814.16;5082504;28;20202;-74
2023/04/21 10:58:06;;;;;;;0.50;0.50;;;;;;;20.16;69.18;99810.06;5088428;28;20228;-74
2023/04/21 11:00:33;;;;;;;0.50;0.50;;;;;;;20.59;74.11;99822.00;5070105;28;20201;-75
2023/04/21 11:03:02;;;;;;;0.50;0.50;;;;;;;20.41;78.84;99827.81;5069406;28;20202;-75
2023/04/21 11:05:35;;;;;;;0.50;0.50;;;;;;;20.59;77.87;99819.38;5077688;28;20194;-75
2023/04/21 11:08:08;;;;;;;0.60;0.60;;;;;;;20.80;75.48;99817.88;5090220;28;20229;-75
2023/04/21 11:10:46;;;;;;;0.50;0.50;;;;;;;20.55;73.75;99821.25;5078462;28;20203;-74
2023/04/21 11:13:12;;;;;;;0.50;0.50;;;;;;;20.73;72.29;99828.59;5074590;28;20201;-74
2023/04/21 11:15:40;;;;;;;0.65;0.65;;;;;;;20.94;69.89;99823.59;5069381;28;20195;-74
2023/04/21 11:18:07;;;;;;;0.50;0.50;;;;;;;20.42;73.91;99788.28;5084216;28;20708;-73
2023/04/21 11:20:34;;;;;;;0.50;0.50;;;;;;;20.57;73.17;99773.78;5070879;28;20202;-72
2023/04/21 11:23:01;;;;;;;0.52;0.52;;;;;;;20.85;66.81;99814.19;5072098;28;20203;-74
2023/04/21 11:25:30;;;;;;;0.55;0.55;;;;;;;20.80;67.23;99802.06;5073636;28;20206;-72
2023/04/21 11:27:58;;;;;;;0.50;0.50;;;;;;;21.04;67.90;99825.03;5075185;28;20240;-74
2023/04/21 11:30:32;;;;;;;0.52;0.52;;;;;;;21.36;66.00;99824.88;5092818;28;20574;-73
2023/04/21 11:32:59;;;;;;;0.50;0.50;;;;;;;21.75;62.68;99822.66;5090186;28;20210;-74
2023/04/21 11:35:26;;;;;;;0.50;0.50;;;;;;;21.98;60.21;99798.13;5076352;28;20218;-73
2023/04/21 11:37:55;;;;;;;0.60;0.60;;;;;;;22.36;59.80;99776.47;5088175;28;20657;-74
2023/04/21 11:40:22;;;;;;;0.50;0.50;;;;;;;22.27;57.43;99815.53;5092050;28;20248;-75
2023/04/21 11:42:50;;;;;;;0.85;0.85;;;;;;;21.81;57.53;99819.81;5094081;28;20966;-74